Time;durP1;ratioP1;P1;durP2;ratioP2;P2;SDS_P1;SDS_P2;PMS_P1;PMS_P2;Temp;Humidity;BMP_temperature;BMP_pressure;BME280_temperature;BME280_humidity;BME280_pressure;Samples;Min_cycle;Max_cycle;Signal;HPM_P1;HPM_P2
2021/01/07 00:01:40;;;;;;;1.52;1.25;;;;;9.30;101256.00;;;;5009999;28;20220;-78
2021/01/07 00:04:07;;;;;;;1.52;1.02;;;;;9.30;101256.00;;;;5008429;28;20487;-78
2021/01/07 00:06:35;;;;;;;1.27;1.02;;;;;9.30;101257.00;;;;5011262;28;20196;-78
2021/01/07 00:09:02;;;;;;;1.45;0.98;;;;;9.30;101251.00;;;;5009362;28;20193;-78
2021/01/07 00:11:28;;;;;;;1.98;1.13;;;;;9.30;101251.00;;;;5002047;28;20204;-78
2021/01/07 00:13:55;;;;;;;2.15;0.90;;;;;9.30;101250.00;;;;5008965;28;20941;-78
2021/01/07 00:16:22;;;;;;;1.58;1.10;;;;;9.30;101253.00;;;;5003793;28;20204;-78
2021/01/07 00:18:48;;;;;;;1.98;1.00;;;;;9.30;101252.00;;;;5007014;28;20201;-78
2021/01/07 00:21:15;;;;;;;2.22;0.93;;;;;9.30;101251.00;;;;5006392;28;20205;-78
2021/01/07 00:23:43;;;;;;;2.17;0.98;;;;;9.30;101250.00;;;;4993552;28;20217;-78
2021/01/07 00:26:09;;;;;;;1.55;1.08;;;;;9.20;101252.00;;;;4999194;28;20201;-78
2021/01/07 00:28:36;;;;;;;1.92;1.13;;;;;9.20;101245.00;;;;5009694;28;20204;-78
2021/01/07 00:31:03;;;;;;;3.15;1.17;;;;;9.20;101247.00;;;;5008328;28;20197;-78
2021/01/07 00:33:30;;;;;;;3.40;1.33;;;;;9.20;101237.00;;;;5000060;28;20209;-78
2021/01/07 00:35:56;;;;;;;2.28;1.35;;;;;9.20;101237.00;;;;5003792;28;20192;-78
2021/01/07 00:38:23;;;;;;;2.30;1.15;;;;;9.20;101243.00;;;;5009113;28;20204;-78
2021/01/07 00:40:51;;;;;;;1.98;1.20;;;;;9.20;101236.00;;;;5000509;28;20200;-78
2021/01/07 00:43:18;;;;;;;1.83;1.08;;;;;9.20;101230.00;;;;5000356;28;20787;-78
2021/01/07 00:45:44;;;;;;;1.55;0.95;;;;;9.20;101242.00;;;;5009273;28;20221;-77
2021/01/07 00:48:11;;;;;;;1.77;1.38;;;;;9.10;101240.00;;;;5005207;28;20194;-79
2021/01/07 00:50:38;;;;;;;2.03;1.13;;;;;9.20;101239.00;;;;5005411;28;20197;-78
2021/01/07 00:53:05;;;;;;;2.25;0.98;;;;;9.20;101236.00;;;;5003423;28;20189;-78
2021/01/07 00:55:31;;;;;;;1.42;1.20;;;;;9.20;101232.00;;;;5009885;28;20200;-78
2021/01/07 00:57:59;;;;;;;2.15;1.13;;;;;9.10;101227.00;;;;5006842;28;20220;-78
2021/01/07 01:00:26;;;;;;;2.33;1.20;;;;;9.10;101230.00;;;;5009631;28;20279;-78
2021/01/07 01:02:53;;;;;;;2.05;1.50;;;;;9.10;101223.00;;;;5005002;28;20224;-78
2021/01/07 01:05:19;;;;;;;2.03;1.25;;;;;9.10;101228.00;;;;5002135;28;20197;-78
2021/01/07 01:07:46;;;;;;;2.30;1.48;;;;;9.10;101224.00;;;;5006933;28;20259;-78
2021/01/07 01:10:14;;;;;;;1.70;1.13;;;;;9.10;101217.00;;;;5005924;28;20186;-78
2021/01/07 01:12:41;;;;;;;1.33;1.05;;;;;9.10;101226.00;;;;5003869;28;20671;-78
2021/01/07 01:15:11;;;;;;;2.08;1.40;;;;;9.10;101217.00;;;;5008387;28;20209;-78
2021/01/07 01:17:38;;;;;;;2.08;1.40;;;;;9.10;101221.00;;;;5009623;28;20197;-78
2021/01/07 01:20:07;;;;;;;4.65;1.42;;;;;9.00;101208.00;;;;5000769;28;20209;-78
2021/01/07 01:22:34;;;;;;;1.55;1.15;;;;;9.00;101210.00;;;;5004588;28;20592;-78
2021/01/07 01:25:07;;;;;;;2.10;1.42;;;;;9.00;101216.00;;;;4996921;28;20201;-78
2021/01/07 01:27:35;;;;;;;3.13;1.63;;;;;9.00;101211.00;;;;5002000;28;20207;-78
2021/01/07 01:30:03;;;;;;;3.10;1.42;;;;;9.00;101221.00;;;;5004535;28;20204;-78
2021/01/07 01:32:31;;;;;;;2.08;1.42;;;;;9.00;101217.00;;;;5005861;28;20201;-78
2021/01/07 01:34:57;;;;;;;3.53;1.35;;;;;9.00;101212.00;;;;5006005;28;20731;-78
2021/01/07 01:37:24;;;;;;;2.13;1.52;;;;;8.90;101212.00;;;;5004115;28;20209;-78
2021/01/07 01:39:51;;;;;;;2.17;1.50;;;;;8.90;101210.00;;;;5009309;28;20255;-78
2021/01/07 01:42:24;;;;;;;1.95;1.45;;;;;8.90;101212.00;;;;5001372;28;20216;-78
2021/01/07 01:44:51;;;;;;;2.70;1.00;;;;;8.90;101220.00;;;;5004806;28;20697;-78
2021/01/07 01:47:18;;;;;;;2.70;1.52;;;;;8.90;101211.00;;;;4999971;28;20198;-78
2021/01/07 01:49:47;;;;;;;2.03;1.48;;;;;8.90;101214.00;;;;4997213;28;20197;-78
2021/01/07 01:52:15;;;;;;;2.10;1.30;;;;;8.90;101217.00;;;;5004150;28;20197;-78
2021/01/07 01:54:44;;;;;;;2.22;1.48;;;;;8.90;101216.00;;;;5010636;28;20237;-77
2021/01/07 01:57:13;;;;;;;2.10;1.45;;;;;8.90;101214.00;;;;4997930;28;20200;-77
2021/01/07 01:59:39;;;;;;;3.28;1.02;;;;;8.90;101211.00;;;;5008797;28;20772;-78
2021/01/07 02:02:07;;;;;;;2.08;1.30;;;;;8.90;101206.00;;;;5007608;28;20205;-78
2021/01/07 02:04:35;;;;;;;1.77;1.27;;;;;8.90;101206.00;;;;4999610;28;20201;-78
2021/01/07 02:07:04;;;;;;;1.95;1.20;;;;;8.90;101208.00;;;;4991508;28;20527;-78
2021/01/07 02:09:32;;;;;;;2.90;1.70;;;;;8.90;101211.00;;;;5001667;28;20197;-78
2021/01/07 02:11:59;;;;;;;1.77;1.40;;;;;8.90;101209.00;;;;5007655;28;21334;-78
2021/01/07 02:14:26;;;;;;;1.95;1.50;;;;;8.90;101202.00;;;;5008064;28;20209;-78
2021/01/07 02:16:54;;;;;;;2.45;1.70;;;;;8.90;101208.00;;;;5001777;28;20256;-78
2021/01/07 02:19:22;;;;;;;2.70;1.35;;;;;8.90;101201.00;;;;5001962;28;20654;-78
2021/01/07 02:21:50;;;;;;;2.40;1.60;;;;;8.90;101205.00;;;;4997525;28;20196;-78
2021/01/07 02:24:18;;;;;;;2.42;1.33;;;;;8.90;101200.00;;;;5008891;28;20220;-78
2021/01/07 02:26:45;;;;;;;2.10;1.40;;;;;8.90;101210.00;;;;5000700;28;20208;-78
2021/01/07 02:29:12;;;;;;;2.50;1.60;;;;;8.80;101208.00;;;;5004517;28;20201;-78
2021/01/07 02:31:40;;;;;;;2.95;1.50;;;;;8.80;101199.00;;;;5000598;28;20204;-78
2021/01/07 02:34:06;;;;;;;2.65;1.42;;;;;8.80;101205.00;;;;4998039;28;20212;-78
2021/01/07 02:36:33;;;;;;;2.28;1.50;;;;;8.80;101210.00;;;;4996770;28;20577;-78
2021/01/07 02:39:01;;;;;;;2.10;1.30;;;;;8.90;101202.00;;;;5000521;28;20197;-78
2021/01/07 02:41:28;;;;;;;2.20;1.42;;;;;8.90;101201.00;;;;4998612;28;20201;-78
2021/01/07 02:43:54;;;;;;;2.30;1.75;;;;;8.90;101199.00;;;;4990715;28;20214;-78
2021/01/07 02:46:21;;;;;;;2.08;1.73;;;;;8.90;101198.00;;;;5008253;28;20667;-79
2021/01/07 02:48:48;;;;;;;1.63;1.40;;;;;8.90;101191.00;;;;5004795;28;20206;-78
2021/01/07 02:51:15;;;;;;;3.15;2.22;;;;;8.90;101193.00;;;;4990524;28;20205;-78
2021/01/07 02:53:42;;;;;;;3.75;1.45;;;;;8.90;101198.00;;;;5008212;28;21031;-78
2021/01/07 02:56:09;;;;;;;2.78;1.70;;;;;8.90;101187.00;;;;5003319;28;20210;-78
2021/01/07 02:58:36;;;;;;;3.15;1.58;;;;;8.90;101185.00;;;;5007856;28;20232;-78
2021/01/07 03:01:03;;;;;;;1.83;1.30;;;;;9.00;101184.00;;;;5001067;28;20224;-78
2021/01/07 03:03:29;;;;;;;2.67;1.48;;;;;9.00;101174.00;;;;5006836;28;20228;-78
2021/01/07 03:05:56;;;;;;;2.10;1.70;;;;;8.90;101182.00;;;;5004205;28;20208;-78
2021/01/07 03:08:23;;;;;;;2.92;1.63;;;;;9.00;101175.00;;;;4991554;28;20198;-78
2021/01/07 03:10:50;;;;;;;2.95;1.75;;;;;9.00;101181.00;;;;4995665;28;20251;-78
2021/01/07 03:13:17;;;;;;;1.92;1.40;;;;;9.00;101178.00;;;;5009576;28;20201;-78
2021/01/07 03:15:44;;;;;;;1.52;1.20;;;;;9.00;101171.00;;;;5006038;28;20189;-78
2021/01/07 03:18:11;;;;;;;1.63;1.20;;;;;9.00;101173.00;;;;4997976;28;20268;-78
2021/01/07 03:20:38;;;;;;;2.33;1.67;;;;;9.00;101170.00;;;;5005902;28;20209;-78
2021/01/07 03:23:05;;;;;;;2.40;1.73;;;;;9.00;101176.00;;;;5006720;28;20217;-78
2021/01/07 03:25:32;;;;;;;2.00;1.27;;;;;9.00;101165.00;;;;5004781;28;20679;-78
2021/01/07 03:27:59;;;;;;;1.52;1.02;;;;;9.00;101166.00;;;;5005974;28;20201;-78
2021/01/07 03:30:26;;;;;;;2.55;1.30;;;;;8.90;101164.00;;;;5011336;28;20205;-78
2021/01/07 03:32:53;;;;;;;1.52;1.08;;;;;8.90;101161.00;;;;4997634;28;20241;-78
2021/01/07 03:35:20;;;;;;;2.38;1.00;;;;;8.90;101165.00;;;;4994845;28;20194;-78
2021/01/07 03:37:47;;;;;;;2.63;1.75;;;;;9.00;101167.00;;;;5006962;28;20259;-78
2021/01/07 03:40:14;;;;;;;2.15;1.10;;;;;9.00;101160.00;;;;4993559;28;20590;-78
2021/01/07 03:42:41;;;;;;;1.23;1.13;;;;;9.00;101165.00;;;;5008618;28;20217;-77
2021/01/07 03:45:08;;;;;;;1.50;0.93;;;;;9.00;101162.00;;;;5007630;28;20580;-77
2021/01/07 03:47:36;;;;;;;3.78;1.23;;;;;9.00;101154.00;;;;4996060;28;20785;-78
2021/01/07 03:50:03;;;;;;;1.13;0.98;;;;;9.00;101158.00;;;;5003623;28;20247;-78
2021/01/07 03:52:30;;;;;;;1.52;1.13;;;;;9.00;101158.00;;;;5006211;28;20193;-78
2021/01/07 03:54:56;;;;;;;1.75;0.90;;;;;9.00;101152.00;;;;5008833;28;20869;-78
2021/01/07 03:57:24;;;;;;;1.27;0.70;;;;;9.00;101160.00;;;;4996132;28;20221;-78
2021/01/07 03:59:50;;;;;;;1.15;0.88;;;;;9.00;101158.00;;;;5003580;28;20710;-77
2021/01/07 04:02:17;;;;;;;1.27;0.77;;;;;9.00;101154.00;;;;5011926;28;20200;-78
2021/01/07 04:04:45;;;;;;;1.23;0.70;;;;;9.00;101157.00;;;;5001050;28;20977;-78
2021/01/07 04:07:11;;;;;;;1.38;0.80;;;;;9.00;101162.00;;;;5009908;28;20193;-78
2021/01/07 04:09:38;;;;;;;1.02;0.80;;;;;9.00;101152.00;;;;5000209;28;20658;-78
2021/01/07 04:12:05;;;;;;;2.40;1.00;;;;;9.00;101156.00;;;;5011339;28;20197;-77
2021/01/07 04:14:32;;;;;;;1.13;0.57;;;;;9.00;101138.00;;;;5005448;28;20209;-78
2021/01/07 04:16:59;;;;;;;3.08;1.05;;;;;9.00;101139.00;;;;5008956;28;20658;-78
2021/01/07 04:19:26;;;;;;;1.20;0.93;;;;;9.00;101144.00;;;;5002744;28;20487;-78
2021/01/07 04:21:53;;;;;;;1.23;0.95;;;;;9.00;101136.00;;;;5010112;28;20212;-78
2021/01/07 04:24:20;;;;;;;1.65;1.00;;;;;9.00;101140.00;;;;5002817;28;20232;-78
2021/01/07 04:26:47;;;;;;;2.28;0.90;;;;;9.00;101138.00;;;;5008211;28;20219;-78
2021/01/07 04:29:14;;;;;;;1.48;0.77;;;;;9.00;101140.00;;;;4996817;28;20197;-77
2021/01/07 04:31:41;;;;;;;1.23;1.00;;;;;9.00;101141.00;;;;5003753;28;20705;-78
2021/01/07 04:34:08;;;;;;;2.30;0.93;;;;;9.10;101135.00;;;;5004061;28;20198;-78
2021/01/07 04:36:35;;;;;;;2.17;1.00;;;;;9.10;101138.00;;;;5007987;28;20196;-78
2021/01/07 04:39:03;;;;;;;1.60;1.00;;;;;9.10;101127.00;;;;5004160;28;20194;-78
2021/01/07 04:41:29;;;;;;;1.20;0.70;;;;;9.10;101128.00;;;;5010368;28;20200;-78
2021/01/07 04:43:57;;;;;;;1.20;0.80;;;;;9.10;101135.00;;;;4999577;28;21055;-78
2021/01/07 04:46:25;;;;;;;5.82;1.00;;;;;9.10;101125.00;;;;5000944;28;20201;-78
2021/01/07 04:48:52;;;;;;;1.15;0.50;;;;;9.10;101128.00;;;;5009125;28;20189;-78
2021/01/07 04:51:19;;;;;;;1.20;0.75;;;;;9.10;101128.00;;;;5010134;28;20211;-78
2021/01/07 04:53:46;;;;;;;1.25;0.82;;;;;9.10;101121.00;;;;5005673;28;20201;-78
2021/01/07 04:56:14;;;;;;;1.77;0.98;;;;;9.20;101127.00;;;;5007280;28;20204;-78
2021/01/07 04:58:41;;;;;;;2.38;1.10;;;;;9.20;101120.00;;;;4994389;28;20236;-78
2021/01/07 05:01:07;;;;;;;1.00;0.75;;;;;9.20;101113.00;;;;4996994;28;20781;-78
2021/01/07 05:03:35;;;;;;;1.52;0.90;;;;;9.20;101114.00;;;;4997925;28;20278;-78
2021/01/07 05:06:02;;;;;;;1.63;0.95;;;;;9.20;101112.00;;;;4993527;28;20256;-78
2021/01/07 05:08:29;;;;;;;2.17;1.30;;;;;9.20;101114.00;;;;4991109;28;20206;-78
2021/01/07 05:10:58;;;;;;;1.33;0.80;;;;;9.20;101113.00;;;;5008855;28;20204;-78
2021/01/07 05:13:25;;;;;;;2.03;1.10;;;;;9.20;101105.00;;;;5009610;28;21015;-78
2021/01/07 05:15:52;;;;;;;1.92;1.23;;;;;9.20;101114.00;;;;4999101;28;20197;-78
2021/01/07 05:18:19;;;;;;;1.88;1.10;;;;;9.20;101119.00;;;;5000259;28;20200;-78
2021/01/07 05:20:46;;;;;;;1.98;1.30;;;;;9.20;101117.00;;;;5005429;28;20651;-78
2021/01/07 05:23:13;;;;;;;2.47;1.17;;;;;9.20;101109.00;;;;5010369;28;20216;-78
2021/01/07 05:25:41;;;;;;;2.72;1.50;;;;;9.20;101110.00;;;;5003428;28;20197;-78
2021/01/07 05:28:08;;;;;;;1.73;1.13;;;;;9.30;101108.00;;;;5004622;28;20668;-78
2021/01/07 05:30:36;;;;;;;1.80;1.35;;;;;9.20;101103.00;;;;5002883;28;20212;-78
2021/01/07 05:33:05;;;;;;;2.63;1.27;;;;;9.30;101108.00;;;;5008862;28;20734;-78
2021/01/07 05:35:33;;;;;;;1.40;1.00;;;;;9.30;101105.00;;;;4998805;28;20208;-77
2021/01/07 05:38:00;;;;;;;1.58;1.00;;;;;9.30;101096.00;;;;5004236;28;20201;-78
2021/01/07 05:40:27;;;;;;;2.35;1.23;;;;;9.30;101103.00;;;;5001347;28;20209;-78
2021/01/07 05:42:58;;;;;;;2.70;1.13;;;;;9.30;101095.00;;;;4999047;28;20236;-78
2021/01/07 05:45:34;;;;;;;1.75;1.05;;;;;9.30;101102.00;;;;4995962;28;20961;-78
2021/01/07 05:48:03;;;;;;;2.22;1.30;;;;;9.30;101100.00;;;;5004078;28;20192;-78
2021/01/07 05:50:36;;;;;;;3.63;1.45;;;;;9.30;101103.00;;;;5007301;28;20579;-77
2021/01/07 05:53:03;;;;;;;1.40;1.23;;;;;9.30;101102.00;;;;5007941;28;20969;-78
2021/01/07 05:55:31;;;;;;;1.67;1.10;;;;;9.30;101099.00;;;;5007151;28;20200;-78
2021/01/07 05:57:59;;;;;;;1.42;1.00;;;;;9.30;101096.00;;;;5004827;28;20269;-77
2021/01/07 06:00:30;;;;;;;3.28;1.15;;;;;9.30;101092.00;;;;4990775;28;20245;-77
2021/01/07 06:02:59;;;;;;;1.17;0.90;;;;;9.30;101090.00;;;;4994565;28;20359;-78
2021/01/07 06:05:27;;;;;;;1.23;0.88;;;;;9.30;101087.00;;;;4999627;28;20580;-77
2021/01/07 06:07:56;;;;;;;2.10;1.13;;;;;9.30;101090.00;;;;5007974;28;20220;-78
2021/01/07 06:10:23;;;;;;;3.13;1.40;;;;;9.40;101101.00;;;;4999980;28;20236;-78
2021/01/07 06:12:51;;;;;;;2.20;1.33;;;;;9.40;101088.00;;;;5006760;28;20208;-77
2021/01/07 06:15:20;;;;;;;2.22;1.40;;;;;9.40;101089.00;;;;5002586;28;20194;-77
2021/01/07 06:17:48;;;;;;;1.65;1.10;;;;;9.40;101085.00;;;;4995197;28;20201;-77
2021/01/07 06:20:16;;;;;;;1.13;0.88;;;;;9.40;101084.00;;;;4992556;28;20268;-78
2021/01/07 06:22:48;;;;;;;1.70;1.00;;;;;9.40;101086.00;;;;5001861;28;20209;-77
2021/01/07 06:25:16;;;;;;;1.95;0.85;;;;;9.40;101085.00;;;;5007533;28;20189;-78
2021/01/07 06:27:44;;;;;;;2.00;1.33;;;;;9.40;101082.00;;;;5005035;28;20574;-78
2021/01/07 06:30:39;;;;;;;1.73;1.10;;;;;9.30;101081.00;;;;5003089;28;20200;-78
2021/01/07 06:33:09;;;;;;;1.95;1.20;;;;;9.40;101085.00;;;;5006793;28;20197;-78
2021/01/07 06:35:40;;;;;;;2.55;1.00;;;;;9.40;101091.00;;;;4988388;28;20209;-78
2021/01/07 06:38:07;;;;;;;7.45;1.42;;;;;9.40;101086.00;;;;5005966;28;20228;-78
2021/01/07 06:40:41;;;;;;;1.83;1.27;;;;;9.40;101091.00;;;;4998218;28;20193;-78
2021/01/07 06:43:18;;;;;;;2.00;1.10;;;;;9.40;101091.00;;;;4996444;28;20706;-78
2021/01/07 06:45:52;;;;;;;1.48;1.10;;;;;9.40;101091.00;;;;5008022;28;20227;-77
2021/01/07 06:48:29;;;;;;;1.98;1.17;;;;;9.50;101090.00;;;;4992208;28;20666;-77
2021/01/07 06:50:57;;;;;;;1.92;1.40;;;;;9.50;101088.00;;;;5008630;28;20197;-78
2021/01/07 06:53:25;;;;;;;1.60;1.10;;;;;9.50;101096.00;;;;5008328;28;20615;-77
2021/01/07 06:56:16;;;;;;;2.25;1.38;;;;;9.40;101087.00;;;;4988316;28;20205;-77
2021/01/07 06:58:44;;;;;;;1.50;0.85;;;;;9.50;101088.00;;;;5000249;28;20603;-77
2021/01/07 07:01:13;;;;;;;3.72;1.30;;;;;9.50;101090.00;;;;5002380;28;20225;-77
2021/01/07 07:03:48;;;;;;;1.70;1.13;;;;;9.40;101087.00;;;;4999314;28;20218;-77
2021/01/07 07:06:18;;;;;;;2.10;1.20;;;;;9.50;101089.00;;;;5005140;28;20608;-77
2021/01/07 07:08:46;;;;;;;2.38;1.17;;;;;9.50;101090.00;;;;5007107;28;20205;-76
2021/01/07 07:11:32;;;;;;;1.65;1.02;;;;;9.40;101085.00;;;;4999704;28;20643;-79
2021/01/07 07:14:00;;;;;;;1.33;1.05;;;;;9.50;101086.00;;;;5003765;28;20574;-76
2021/01/07 07:16:32;;;;;;;1.73;1.13;;;;;9.40;101085.00;;;;4997408;28;20201;-76
2021/01/07 07:18:59;;;;;;;1.80;0.95;;;;;9.50;101087.00;;;;5008104;28;20598;-76
2021/01/07 07:21:28;;;;;;;1.55;1.15;;;;;9.50;101091.00;;;;5007208;28;20569;-76
2021/01/07 07:24:06;;;;;;;2.08;1.27;;;;;9.50;101090.00;;;;5007282;28;20283;-77
2021/01/07 07:26:34;;;;;;;1.83;1.10;;;;;9.50;101089.00;;;;5008907;28;20247;-76
2021/01/07 07:29:10;;;;;;;1.70;1.02;;;;;9.50;101095.00;;;;5008142;28;20411;-76
2021/01/07 07:31:44;;;;;;;1.75;0.93;;;;;9.50;101092.00;;;;5007977;28;20200;-77
2021/01/07 07:34:12;;;;;;;2.67;1.08;;;;;9.50;101094.00;;;;5007481;28;20761;-77
2021/01/07 07:36:40;;;;;;;2.05;1.25;;;;;9.50;101092.00;;;;5006516;28;20201;-78
2021/01/07 07:39:08;;;;;;;1.52;1.10;;;;;9.50;101091.00;;;;5001670;28;20204;-78
2021/01/07 07:41:43;;;;;;;1.55;1.00;;;;;9.50;101093.00;;;;5002794;28;20204;-78
2021/01/07 07:44:11;;;;;;;2.15;1.13;;;;;9.60;101099.00;;;;5000652;28;20315;-77
2021/01/07 07:46:38;;;;;;;1.48;1.13;;;;;9.60;101095.00;;;;5007395;28;20737;-77
2021/01/07 07:49:10;;;;;;;1.48;0.98;;;;;9.60;101092.00;;;;5003221;28;20330;-77
2021/01/07 07:51:37;;;;;;;1.90;0.95;;;;;9.60;101095.00;;;;5005024;28;20217;-77
2021/01/07 07:54:05;;;;;;;1.75;0.95;;;;;9.60;101093.00;;;;5004653;28;20213;-76
2021/01/07 07:56:33;;;;;;;2.67;1.40;;;;;9.70;101095.00;;;;5006457;28;20201;-77
2021/01/07 07:59:01;;;;;;;1.67;1.02;;;;;9.70;101102.00;;;;5010499;28;20224;-77
2021/01/07 08:01:36;;;;;;;1.02;0.90;;;;;9.60;101109.00;;;;5011101;28;20224;-77
2021/01/07 08:04:02;;;;;;;1.80;1.27;;;;;9.70;101109.00;;;;5011279;28;20246;-77
2021/01/07 08:06:29;;;;;;;3.45;1.08;;;;;9.70;101106.00;;;;5011376;28;20201;-77
2021/01/07 08:09:03;;;;;;;2.38;1.17;;;;;9.70;101108.00;;;;5010763;28;20201;-77
2021/01/07 08:11:30;;;;;;;1.85;1.23;;;;;9.70;101110.00;;;;5010139;28;20193;-76
2021/01/07 08:13:58;;;;;;;0.77;0.60;;;;;9.70;101119.00;;;;5010554;28;20570;-77
2021/01/07 08:16:27;;;;;;;1.95;1.08;;;;;9.80;101112.00;;;;5010950;28;20248;-77
2021/01/07 08:18:53;;;;;;;1.83;0.80;;;;;9.80;101116.00;;;;5010263;28;21200;-77
2021/01/07 08:21:20;;;;;;;1.70;1.17;;;;;9.80;101122.00;;;;5009996;28;20201;-77
2021/01/07 08:23:47;;;;;;;1.58;1.20;;;;;9.90;101122.00;;;;5001659;28;20231;-77
2021/01/07 08:26:25;;;;;;;1.65;1.00;;;;;9.80;101117.00;;;;5010753;28;20197;-76
2021/01/07 08:28:53;;;;;;;2.47;1.42;;;;;9.90;101126.00;;;;5009222;28;20197;-77
2021/01/07 08:31:25;;;;;;;1.38;0.95;;;;;9.90;101121.00;;;;5010883;28;20622;-77
2021/01/07 08:33:54;;;;;;;1.52;0.98;;;;;9.90;101122.00;;;;5009967;28;20205;-77
2021/01/07 08:36:22;;;;;;;1.73;1.10;;;;;10.00;101126.00;;;;5011298;28;20201;-77
2021/01/07 08:38:50;;;;;;;1.30;0.90;;;;;10.00;101127.00;;;;4992739;28;20237;-78
2021/01/07 08:41:18;;;;;;;0.93;0.63;;;;;10.00;101135.00;;;;5007031;28;20201;-77
2021/01/07 08:43:47;;;;;;;1.00;0.80;;;;;10.00;101125.00;;;;5009977;28;20608;-77
2021/01/07 08:46:15;;;;;;;2.00;1.30;;;;;10.00;101125.00;;;;5009633;28;20691;-77
2021/01/07 08:48:44;;;;;;;1.40;1.13;;;;;10.00;101121.00;;;;5010477;28;20197;-77
2021/01/07 08:51:19;;;;;;;1.65;1.20;;;;;10.00;101118.00;;;;5010183;28;20582;-77
2021/01/07 08:53:49;;;;;;;1.20;0.77;;;;;10.00;101124.00;;;;5009781;28;20215;-77
2021/01/07 08:56:30;;;;;;;0.95;0.82;;;;;10.00;101124.00;;;;5010338;28;20193;-77
2021/01/07 08:59:21;;;;;;;1.67;0.90;;;;;10.00;101126.00;;;;5009591;28;20298;-77
2021/01/07 09:01:49;;;;;;;1.50;1.20;;;;;10.10;101122.00;;;;5007362;28;20223;-76
2021/01/07 09:04:28;;;;;;;1.88;1.10;;;;;10.00;101120.00;;;;5004732;28;20231;-77
2021/01/07 09:07:00;;;;;;;1.60;1.08;;;;;10.10;101124.00;;;;5006192;28;20205;-77
2021/01/07 09:09:36;;;;;;;1.98;0.90;;;;;10.10;101123.00;;;;5009489;28;20209;-77
2021/01/07 09:12:28;;;;;;;1.23;0.80;;;;;10.00;101126.00;;;;5009217;28;20331;-77
2021/01/07 09:14:56;;;;;;;2.72;1.00;;;;;10.10;101115.00;;;;5006561;28;20223;-77
2021/01/07 09:17:25;;;;;;;2.03;1.05;;;;;10.20;101119.00;;;;5009413;28;20558;-76
2021/01/07 09:19:54;;;;;;;1.80;1.13;;;;;10.20;101129.00;;;;5004868;28;20197;-76
2021/01/07 09:22:22;;;;;;;2.42;0.90;;;;;10.20;101119.00;;;;5006758;28;20211;-77
2021/01/07 09:24:49;;;;;;;1.52;0.98;;;;;10.20;101117.00;;;;5008443;28;20709;-77
2021/01/07 09:27:18;;;;;;;3.30;1.42;;;;;10.20;101129.00;;;;5007567;28;20212;-76
2021/01/07 09:29:45;;;;;;;1.10;0.77;;;;;10.30;101125.00;;;;5006897;28;20201;-76
2021/01/07 09:32:13;;;;;;;2.00;1.00;;;;;10.30;101123.00;;;;5009385;28;20197;-76
2021/01/07 09:34:41;;;;;;;1.33;1.00;;;;;10.30;101119.00;;;;5009811;28;20208;-76
2021/01/07 09:37:13;;;;;;;1.63;1.33;;;;;10.30;101121.00;;;;5006765;28;20200;-76
2021/01/07 09:39:40;;;;;;;1.65;1.23;;;;;10.40;101123.00;;;;5008741;28;20205;-76
2021/01/07 09:42:08;;;;;;;3.08;1.27;;;;;10.40;101123.00;;;;4995838;28;20270;-76
2021/01/07 09:44:35;;;;;;;2.25;1.35;;;;;10.40;101125.00;;;;5005855;28;20256;-77
2021/01/07 09:47:02;;;;;;;2.50;0.95;;;;;10.40;101129.00;;;;5009457;28;20207;-77
2021/01/07 09:49:29;;;;;;;2.38;1.33;;;;;10.40;101124.00;;;;5008946;28;20211;-75
2021/01/07 09:51:57;;;;;;;2.90;1.10;;;;;10.40;101126.00;;;;5009161;28;20621;-76
2021/01/07 09:54:25;;;;;;;1.88;1.10;;;;;10.40;101121.00;;;;5008849;28;20212;-77
2021/01/07 09:56:53;;;;;;;1.95;1.10;;;;;10.40;101126.00;;;;5009461;28;20213;-77
2021/01/07 09:59:21;;;;;;;2.45;1.05;;;;;10.40;101120.00;;;;5009434;28;20229;-76
2021/01/07 10:01:48;;;;;;;2.95;1.33;;;;;10.40;101118.00;;;;5008134;28;20454;-77
2021/01/07 10:04:15;;;;;;;1.50;0.90;;;;;10.40;101123.00;;;;5008640;28;20227;-76
2021/01/07 10:06:42;;;;;;;2.22;0.98;;;;;10.40;101131.00;;;;5000408;28;20276;-76
2021/01/07 10:09:09;;;;;;;1.83;1.17;;;;;10.50;101118.00;;;;5008896;28;20239;-77
2021/01/07 10:11:37;;;;;;;1.25;1.00;;;;;10.50;101120.00;;;;5007842;28;20266;-77
2021/01/07 10:14:03;;;;;;;1.02;0.68;;;;;10.50;101124.00;;;;5008503;28;20201;-76
2021/01/07 10:16:30;;;;;;;1.23;0.57;;;;;10.50;101118.00;;;;5008769;28;20244;-76
2021/01/07 10:18:57;;;;;;;1.40;0.90;;;;;10.50;101117.00;;;;5008488;28;20201;-76
2021/01/07 10:21:25;;;;;;;1.33;0.75;;;;;10.50;101119.00;;;;5008579;28;20212;-76
2021/01/07 10:23:52;;;;;;;1.60;0.80;;;;;10.50;101125.00;;;;5008030;28;20251;-76
2021/01/07 10:26:20;;;;;;;0.85;0.43;;;;;10.50;101116.00;;;;5008940;28;20212;-76
2021/01/07 10:28:49;;;;;;;0.85;0.57;;;;;10.40;101120.00;;;;5006525;28;20727;-76
2021/01/07 10:31:17;;;;;;;0.68;0.50;;;;;10.40;101118.00;;;;5008485;28;20606;-76
2021/01/07 10:33:45;;;;;;;0.88;0.45;;;;;10.40;101114.00;;;;5008200;28;20659;-76
2021/01/07 10:36:14;;;;;;;0.70;0.40;;;;;10.40;101109.00;;;;5007810;28;20572;-76
2021/01/07 10:38:41;;;;;;;0.90;0.40;;;;;10.40;101112.00;;;;5004190;28;20201;-77
2021/01/07 10:41:09;;;;;;;0.90;0.30;;;;;10.40;101113.00;;;;5004918;28;20204;-77
2021/01/07 10:43:36;;;;;;;1.27;0.30;;;;;10.30;101101.00;;;;5008011;28;20600;-77
2021/01/07 10:46:04;;;;;;;1.23;0.30;;;;;10.30;101095.00;;;;5007677;28;20197;-78
2021/01/07 10:48:35;;;;;;;0.40;0.20;;;;;10.30;101094.00;;;;5008440;28;20205;-76
2021/01/07 10:51:03;;;;;;;0.55;0.28;;;;;10.30;101103.00;;;;5008297;28;20205;-76
2021/01/07 10:54:08;;;;;;;0.30;0.20;;;;;10.30;101102.00;;;;5007513;28;20205;-75
2021/01/07 10:57:01;;;;;;;0.30;0.17;;;;;10.30;101103.00;;;;4997563;28;20197;-76
2021/01/07 10:59:39;;;;;;;0.20;0.10;;;;;10.30;101092.00;;;;5006070;28;20228;-75
2021/01/07 11:02:37;;;;;;;0.20;0.10;;;;;10.30;101093.00;;;;5007716;28;20200;-75
2021/01/07 11:05:13;;;;;;;0.57;0.32;;;;;10.40;101088.00;;;;5008298;28;20231;-75
2021/01/07 11:07:50;;;;;;;0.20;0.10;;;;;10.40;101084.00;;;;5007896;28;20193;-75
2021/01/07 11:10:18;;;;;;;0.30;0.25;;;;;10.50;101080.00;;;;5008111;28;20721;-77
2021/01/07 11:12:56;;;;;;;0.63;0.17;;;;;10.40;101085.00;;;;5007430;28;20200;-77
2021/01/07 11:15:25;;;;;;;0.70;0.10;;;;;10.50;101080.00;;;;5007430;28;20205;-76
2021/01/07 11:18:07;;;;;;;0.40;0.20;;;;;10.50;101083.00;;;;4991153;28;20224;-77
2021/01/07 11:20:36;;;;;;;0.43;0.10;;;;;10.50;101081.00;;;;4998694;28;20206;-77
2021/01/07 11:23:05;;;;;;;1.05;0.30;;;;;10.50;101072.00;;;;5006394;28;20205;-76
2021/01/07 11:25:32;;;;;;;0.20;0.13;;;;;10.60;101075.00;;;;5007712;28;20205;-77
2021/01/07 11:28:00;;;;;;;1.63;0.45;;;;;10.60;101064.00;;;;5007539;28;20204;-77
2021/01/07 11:30:28;;;;;;;0.35;0.10;;;;;10.70;101069.00;;;;5003938;28;20205;-76
2021/01/07 11:32:55;;;;;;;0.30;0.20;;;;;10.70;101069.00;;;;5011405;28;20209;-76
2021/01/07 11:35:23;;;;;;;1.42;0.40;;;;;10.70;101062.00;;;;5011434;28;20216;-76
2021/01/07 11:37:57;;;;;;;0.65;0.35;;;;;10.70;101061.00;;;;5011328;28;20227;-76
2021/01/07 11:40:35;;;;;;;1.08;0.30;;;;;10.80;101060.00;;;;5007544;28;20235;-77
2021/01/07 11:43:27;;;;;;;1.52;0.40;;;;;10.80;101069.00;;;;5011613;28;20212;-76
2021/01/07 11:45:58;;;;;;;0.22;0.17;;;;;10.80;101063.00;;;;5001772;28;20540;-76
2021/01/07 11:48:27;;;;;;;0.60;0.25;;;;;10.80;101054.00;;;;5012041;28;20205;-76
2021/01/07 11:51:00;;;;;;;0.60;0.40;;;;;10.80;101058.00;;;;5010423;28;20201;-77
2021/01/07 11:53:30;;;;;;;1.58;0.30;;;;;10.90;101045.00;;;;5006164;28;20208;-76
2021/01/07 11:55:58;;;;;;;1.73;0.60;;;;;11.00;101044.00;;;;5011329;28;20204;-76
2021/01/07 11:58:27;;;;;;;0.75;0.20;;;;;11.10;101040.00;;;;5010622;28;20229;-77
2021/01/07 12:00:55;;;;;;;2.45;0.60;;;;;11.10;101031.00;;;;5011037;28;20782;-76
2021/01/07 12:03:27;;;;;;;1.20;0.70;;;;;11.20;101037.00;;;;5011878;28;20225;-77
2021/01/07 12:05:57;;;;;;;0.80;0.60;;;;;11.20;101040.00;;;;5000189;28;20205;-77
2021/01/07 12:08:38;;;;;;;1.58;0.70;;;;;11.20;101036.00;;;;5011018;28;20232;-77
2021/01/07 12:11:06;;;;;;;1.23;0.50;;;;;11.40;101034.00;;;;5009469;28;20282;-76
2021/01/07 12:13:41;;;;;;;1.27;0.80;;;;;11.40;101032.00;;;;5011023;28;20204;-77
2021/01/07 12:16:16;;;;;;;3.10;1.08;;;;;11.40;101030.00;;;;5009647;28;20292;-76
2021/01/07 12:18:43;;;;;;;1.13;0.75;;;;;11.50;101026.00;;;;4998683;28;20201;-76
2021/01/07 12:21:11;;;;;;;2.28;0.90;;;;;11.50;101020.00;;;;5005060;28;20272;-76
2021/01/07 12:23:41;;;;;;;2.08;0.80;;;;;11.50;101013.00;;;;5008307;28;20225;-76